createdAt,value
2022-09-06T00:00:18.366Z,95509.20
2022-09-06T00:02:45.687Z,95513.20
2022-09-06T00:05:13.326Z,95511.20
2022-09-06T00:07:40.270Z,95505.60
2022-09-06T00:10:08.225Z,95505.00
2022-09-06T00:12:35.286Z,95507.20
2022-09-06T00:15:02.843Z,95506.00
2022-09-06T00:17:29.558Z,95502.80
2022-09-06T00:19:56.204Z,95505.80
2022-09-06T00:22:23.011Z,95507.60
2022-09-06T00:24:49.776Z,95506.40
2022-09-06T00:27:16.531Z,95508.80
2022-09-06T00:29:43.302Z,95507.80
2022-09-06T00:32:10.015Z,95504.60
2022-09-06T00:34:36.724Z,95501.00
2022-09-06T00:37:03.597Z,95498.80
2022-09-06T00:39:30.300Z,95495.60
2022-09-06T00:41:57.143Z,95495.40
2022-09-06T00:44:23.852Z,95499.60
2022-09-06T00:46:53.686Z,95495.60
2022-09-06T00:49:33.406Z,95496.20
2022-09-06T00:52:06.364Z,95502.80
2022-09-06T00:54:33.217Z,95506.60
2022-09-06T00:57:00.465Z,95507.00
2022-09-06T00:59:31.916Z,95508.60
2022-09-06T01:01:59.127Z,95514.20
2022-09-06T01:04:27.749Z,95517.80
2022-09-06T01:07:10.977Z,95521.20
2022-09-06T01:09:52.655Z,95514.20
2022-09-06T01:13:12.920Z,95514.00
2022-09-06T01:15:54.627Z,95518.20
2022-09-06T01:18:42.642Z,95521.60
2022-09-06T01:21:20.744Z,95518.00
2022-09-06T01:24:25.470Z,95518.80
2022-09-06T01:27:28.725Z,95518.40
2022-09-06T01:30:17.565Z,95516.20
2022-09-06T01:32:59.382Z,95514.20
2022-09-06T01:35:43.508Z,95511.00
2022-09-06T01:38:10.755Z,95520.40
2022-09-06T01:40:37.406Z,95519.80
2022-09-06T01:43:11.098Z,95520.20
2022-09-06T01:46:19.738Z,95523.20
2022-09-06T01:48:56.140Z,95526.40
2022-09-06T01:52:02.582Z,95528.20
2022-09-06T01:54:46.046Z,95528.80
2022-09-06T01:57:59.731Z,95527.00
2022-09-06T02:00:27.146Z,95520.80
2022-09-06T02:03:08.907Z,95520.80
2022-09-06T02:05:43.713Z,95516.00
2022-09-06T02:08:21.286Z,95517.60
2022-09-06T02:10:54.529Z,95517.80
2022-09-06T02:13:24.208Z,95521.00
2022-09-06T02:15:58.652Z,95523.00
2022-09-06T02:18:36.044Z,95527.00
2022-09-06T02:21:04.355Z,95523.20
2022-09-06T02:23:39.470Z,95518.60
2022-09-06T02:26:23.472Z,95517.60
2022-09-06T02:28:50.362Z,95513.20
2022-09-06T02:31:23.946Z,95519.00
2022-09-06T02:33:52.117Z,95520.00
2022-09-06T02:36:19.363Z,95520.20
2022-09-06T02:38:47.098Z,95519.40
2022-09-06T02:41:18.457Z,95513.00
2022-09-06T02:43:45.299Z,95511.40
2022-09-06T02:46:12.583Z,95515.20
2022-09-06T02:48:39.407Z,95514.60
2022-09-06T02:51:08.133Z,95516.40
2022-09-06T02:53:35.733Z,95519.60
2022-09-06T02:56:03.411Z,95516.80
2022-09-06T02:58:30.158Z,95516.40
2022-09-06T03:00:56.976Z,95514.20
2022-09-06T03:03:24.923Z,95517.80
2022-09-06T03:05:53.569Z,95516.60
2022-09-06T03:08:25.729Z,95514.20
2022-09-06T03:10:56.142Z,95511.60
2022-09-06T03:13:24.748Z,95516.20
2022-09-06T03:15:53.042Z,95511.80
2022-09-06T03:18:20.130Z,95510.40
2022-09-06T03:20:50.663Z,95510.80
2022-09-06T03:23:19.494Z,95507.40
2022-09-06T03:25:46.235Z,95505.60
2022-09-06T03:28:13.059Z,95501.60
2022-09-06T03:30:40.611Z,95499.00
2022-09-06T03:33:07.368Z,95499.40
2022-09-06T03:35:34.119Z,95496.60
2022-09-06T03:38:00.939Z,95497.00
2022-09-06T03:40:27.681Z,95496.20
2022-09-06T03:42:54.449Z,95494.60
2022-09-06T03:45:21.259Z,95492.60
2022-09-06T03:47:48.952Z,95494.60
2022-09-06T03:50:15.785Z,95493.40
2022-09-06T03:52:42.510Z,95494.60
2022-09-06T03:55:09.727Z,95493.20
2022-09-06T03:57:36.525Z,95495.20
2022-09-06T04:00:04.672Z,95496.60
2022-09-06T04:02:38.436Z,95492.80
2022-09-06T04:05:06.403Z,95488.00
2022-09-06T04:07:33.133Z,95492.80
2022-09-06T04:09:59.811Z,95493.80
2022-09-06T04:12:26.551Z,95497.20
2022-09-06T04:14:53.240Z,95506.80
2022-09-06T04:17:19.910Z,95507.20
2022-09-06T04:19:46.581Z,95511.00
2022-09-06T04:22:13.262Z,95511.80
2022-09-06T04:24:39.974Z,95508.40
2022-09-06T04:27:06.830Z,95503.80
2022-09-06T04:29:33.787Z,95503.00
2022-09-06T04:32:00.494Z,95500.80
2022-09-06T04:34:27.216Z,95498.00
2022-09-06T04:36:53.914Z,95494.40
2022-09-06T04:39:20.584Z,95492.40
2022-09-06T04:41:47.236Z,95497.00
2022-09-06T04:44:14.031Z,95499.60
2022-09-06T04:46:42.366Z,95500.60
2022-09-06T04:49:09.040Z,95504.80
2022-09-06T04:51:37.352Z,95509.40
2022-09-06T04:54:04.024Z,95508.40
2022-09-06T04:56:30.683Z,95519.40
2022-09-06T04:58:57.540Z,95517.20
2022-09-06T05:01:26.531Z,95517.80
2022-09-06T05:03:56.712Z,95508.80
2022-09-06T05:06:25.504Z,95510.80
2022-09-06T05:08:52.641Z,95504.20
2022-09-06T05:11:20.795Z,95505.80
2022-09-06T05:13:47.748Z,95508.80
2022-09-06T05:16:14.668Z,95515.60
2022-09-06T05:18:41.797Z,95519.80
2022-09-06T05:21:08.547Z,95522.80
2022-09-06T05:23:35.206Z,95530.80
2022-09-06T05:26:02.135Z,95534.20
2022-09-06T05:28:29.579Z,95540.40
2022-09-06T05:31:11.995Z,95537.60
2022-09-06T05:33:39.449Z,95539.00
2022-09-06T05:36:07.300Z,95542.20
2022-09-06T05:38:34.197Z,95555.00
2022-09-06T05:41:01.160Z,95563.80
2022-09-06T05:43:30.035Z,95559.80
2022-09-06T05:45:56.888Z,95559.20
2022-09-06T05:48:23.752Z,95567.80
2022-09-06T05:51:07.720Z,95565.00
2022-09-06T05:53:35.824Z,95565.80
2022-09-06T05:56:03.412Z,95590.80
2022-09-06T05:58:30.329Z,95582.80
2022-09-06T06:01:18.855Z,95588.40
2022-09-06T06:04:04.663Z,95585.00
2022-09-06T06:06:33.580Z,95592.40
2022-09-06T06:09:00.964Z,95593.40
2022-09-06T06:11:28.436Z,95597.00
2022-09-06T06:13:55.417Z,95603.60
2022-09-06T06:16:23.210Z,95613.00
2022-09-06T06:18:52.554Z,95604.80
2022-09-06T06:21:26.975Z,95597.20
2022-09-06T06:24:00.506Z,95593.40
2022-09-06T06:26:31.135Z,95592.00
2022-09-06T06:29:01.686Z,95586.80
2022-09-06T06:31:30.870Z,95584.40
2022-09-06T06:33:58.407Z,95600.20
2022-09-06T06:36:30.662Z,95602.00
2022-09-06T06:38:58.537Z,95595.80
2022-09-06T06:41:28.286Z,95595.60
2022-09-06T06:43:58.581Z,95592.40
2022-09-06T06:46:29.352Z,95605.80
2022-09-06T06:48:56.547Z,95600.80
2022-09-06T06:51:28.344Z,95611.00
2022-09-06T06:53:57.021Z,95617.00
2022-09-06T06:56:28.074Z,95622.60
2022-09-06T06:59:01.034Z,95626.00
2022-09-06T07:01:31.307Z,95635.20
2022-09-06T07:03:58.961Z,95631.20
2022-09-06T07:09:21.755Z,95628.60
2022-09-06T07:11:49.137Z,95620.20
2022-09-06T07:14:19.707Z,95622.40
2022-09-06T07:16:46.639Z,95630.80
2022-09-06T07:22:04.377Z,95635.60
2022-09-06T07:24:32.580Z,95642.40
2022-09-06T07:29:45.976Z,95647.40
2022-09-06T07:32:12.771Z,95646.20
2022-09-06T07:34:39.684Z,95647.80
2022-09-06T07:37:06.405Z,95649.80
2022-09-06T07:39:33.182Z,95645.00
2022-09-06T07:41:59.960Z,95644.20
2022-09-06T07:44:28.837Z,95646.20
2022-09-06T07:55:16.544Z,95628.60
2022-09-06T07:57:43.656Z,95634.40
2022-09-06T08:00:12.194Z,95637.20
2022-09-06T08:02:40.844Z,95638.80
2022-09-06T08:10:41.423Z,95608.80
2022-09-06T08:13:08.070Z,95593.60
2022-09-06T08:15:35.324Z,95600.60
2022-09-06T08:18:02.247Z,95591.40
2022-09-06T08:20:28.944Z,95590.00
2022-09-06T08:22:55.585Z,95584.40
2022-09-06T08:25:22.862Z,95580.40
2022-09-06T08:27:49.526Z,95577.40
2022-09-06T08:30:16.414Z,95572.80
2022-09-06T08:32:43.107Z,95567.80
2022-09-06T08:35:10.361Z,95572.40
2022-09-06T08:37:37.050Z,95573.00
2022-09-06T08:40:04.322Z,95581.00
2022-09-06T08:42:31.699Z,95583.20
2022-09-06T08:45:00.496Z,95581.00
2022-09-06T08:47:27.454Z,95579.60
2022-09-06T08:50:10.080Z,95573.60
2022-09-06T08:53:17.090Z,95571.40
2022-09-06T08:56:33.031Z,95579.60
2022-09-06T08:59:09.392Z,95580.40
2022-09-06T09:01:44.505Z,95584.00
2022-09-06T09:04:16.355Z,95581.20
2022-09-06T09:06:48.866Z,95571.80
2022-09-06T09:09:16.529Z,95566.60
2022-09-06T09:11:50.224Z,95555.40
2022-09-06T09:14:35.405Z,95549.40
2022-09-06T09:17:12.847Z,95544.60
2022-09-06T09:19:41.754Z,95541.20
2022-09-06T09:22:10.276Z,95539.60
2022-09-06T09:24:37.609Z,95535.80
2022-09-06T09:27:11.258Z,95532.00
2022-09-06T09:32:45.448Z,95522.80
2022-09-06T09:35:33.958Z,95516.60
2022-09-06T09:38:12.073Z,95509.40
2022-09-06T09:41:04.078Z,95507.60
2022-09-06T09:43:42.574Z,95504.00
2022-09-06T09:46:24.401Z,95497.20
2022-09-06T09:49:13.314Z,95495.60
2022-09-06T09:51:45.498Z,95496.60
2022-09-06T09:54:15.480Z,95495.80
2022-09-06T09:56:48.947Z,95501.00
2022-09-06T09:59:30.582Z,95505.00
2022-09-06T10:02:01.519Z,95499.20
2022-09-06T10:07:17.299Z,95498.60
2022-09-06T10:10:07.684Z,95492.40
2022-09-06T10:12:39.565Z,95489.80
2022-09-06T10:15:12.937Z,95487.20
2022-09-06T10:17:54.859Z,95489.60
2022-09-06T10:20:43.443Z,95489.20
2022-09-06T10:26:50.512Z,95485.40
2022-09-06T10:29:30.808Z,95485.80
2022-09-06T10:32:08.305Z,95491.20
2022-09-06T10:35:06.298Z,95491.00
2022-09-06T10:37:54.509Z,95496.80
2022-09-06T10:40:48.264Z,95494.00
2022-09-06T10:43:19.678Z,95492.80
2022-09-06T10:46:02.975Z,95492.80
2022-09-06T10:48:35.983Z,95495.40
2022-09-06T10:51:20.751Z,95490.40
2022-09-06T10:54:12.331Z,95494.00
2022-09-06T10:56:57.637Z,95489.40
2022-09-06T11:00:12.028Z,95487.00
2022-09-06T11:06:09.418Z,95476.40
2022-09-06T11:09:16.819Z,95475.80
2022-09-06T11:12:08.442Z,95467.80
2022-09-06T11:14:36.822Z,95475.40
2022-09-06T11:17:24.198Z,95474.00
2022-09-06T11:20:15.498Z,95475.00
2022-09-06T11:22:52.524Z,95470.20
2022-09-06T11:25:40.660Z,95470.60
2022-09-06T11:28:15.260Z,95469.40
2022-09-06T11:30:48.760Z,95465.80
2022-09-06T11:33:28.047Z,95461.80
2022-09-06T11:36:30.137Z,95453.00
2022-09-06T11:39:00.478Z,95454.60
2022-09-06T11:41:39.909Z,95456.00
2022-09-06T11:44:09.709Z,95454.80
2022-09-06T11:46:36.478Z,95455.40
2022-09-06T11:49:07.402Z,95455.80
2022-09-06T11:51:45.397Z,95447.40
2022-09-06T11:54:15.254Z,95441.60
2022-09-06T11:57:01.628Z,95442.00
2022-09-06T11:59:37.332Z,95440.60
2022-09-06T12:02:35.658Z,95441.20
2022-09-06T12:05:03.958Z,95434.40
2022-09-06T12:07:32.882Z,95436.60
2022-09-06T12:10:31.120Z,95437.00
2022-09-06T12:12:58.757Z,95437.00
2022-09-06T12:15:31.556Z,95432.40
2022-09-06T12:18:00.345Z,95430.00
2022-09-06T12:20:48.906Z,95429.40
2022-09-06T12:23:34.548Z,95428.80
2022-09-06T12:26:02.715Z,95419.40
2022-09-06T12:28:47.236Z,95420.20
2022-09-06T12:31:25.181Z,95422.20
2022-09-06T12:33:53.718Z,95414.80
2022-09-06T12:36:31.560Z,95411.80
2022-09-06T12:39:13.820Z,95408.40
2022-09-06T12:41:47.313Z,95409.40
2022-09-06T12:44:16.586Z,95406.60
2022-09-06T12:46:51.705Z,95402.20
2022-09-06T12:49:23.419Z,95398.00
2022-09-06T12:51:50.535Z,95398.80
2022-09-06T12:54:24.043Z,95396.60
2022-09-06T12:56:52.564Z,95394.20
2022-09-06T12:59:24.958Z,95394.20
2022-09-06T13:02:05.150Z,95392.80
2022-09-06T13:04:42.255Z,95388.00
2022-09-06T13:07:15.667Z,95387.00
2022-09-06T13:09:49.541Z,95384.60
2022-09-06T13:12:32.122Z,95391.40
2022-09-06T13:15:08.652Z,95385.00
2022-09-06T13:17:37.970Z,95389.00
2022-09-06T13:20:28.195Z,95378.80
2022-09-06T13:23:09.939Z,95376.20
2022-09-06T13:25:54.563Z,95377.40
2022-09-06T13:28:33.658Z,95376.60
2022-09-06T13:31:17.177Z,95377.00
2022-09-06T13:33:46.371Z,95373.40
2022-09-06T13:36:33.810Z,95371.00
2022-09-06T13:39:03.611Z,95369.80
2022-09-06T13:41:30.211Z,95364.20
2022-09-06T13:44:07.824Z,95372.60
2022-09-06T13:46:38.320Z,95362.00
2022-09-06T13:49:05.696Z,95360.80
2022-09-06T13:51:34.301Z,95361.00
2022-09-06T13:54:14.120Z,95356.20
2022-09-06T13:56:42.665Z,95357.20
2022-09-06T13:59:10.909Z,95354.60
2022-09-06T14:01:40.872Z,95351.00
2022-09-06T14:04:11.663Z,95350.60
2022-09-06T14:06:38.461Z,95352.40
2022-09-06T14:09:07.684Z,95350.80
2022-09-06T14:11:34.956Z,95353.60
2022-09-06T14:14:01.973Z,95344.80
2022-09-06T14:16:29.330Z,95339.00
2022-09-06T14:18:56.428Z,95339.60
2022-09-06T14:21:23.209Z,95331.40
2022-09-06T14:23:52.418Z,95329.00
2022-09-06T14:26:21.376Z,95325.20
2022-09-06T14:28:48.421Z,95331.80
2022-09-06T14:31:22.197Z,95330.20
2022-09-06T14:33:49.529Z,95323.80
2022-09-06T14:36:20.562Z,95325.60
2022-09-06T14:38:48.142Z,95328.60
2022-09-06T14:41:17.721Z,95323.80
2022-09-06T14:43:52.985Z,95324.80
2022-09-06T14:46:22.532Z,95322.60
2022-09-06T14:48:55.561Z,95321.00
2022-09-06T14:51:23.371Z,95322.00
2022-09-06T14:53:53.802Z,95323.00
2022-09-06T14:56:21.793Z,95323.00
2022-09-06T14:58:49.227Z,95327.20
2022-09-06T15:01:19.623Z,95325.60
2022-09-06T15:03:51.576Z,95324.60
2022-09-06T15:06:21.432Z,95319.80
2022-09-06T15:08:49.366Z,95318.80
2022-09-06T15:11:32.268Z,95317.40
2022-09-06T15:13:59.210Z,95312.80
2022-09-06T15:16:25.997Z,95313.60
2022-09-06T15:18:55.058Z,95316.00
2022-09-06T15:21:22.992Z,95318.00
2022-09-06T15:23:51.718Z,95316.80
2022-09-06T15:26:19.023Z,95316.40
2022-09-06T15:28:45.943Z,95310.80
2022-09-06T15:31:14.273Z,95315.20
2022-09-06T15:33:41.461Z,95311.60
2022-09-06T15:36:10.641Z,95306.60
2022-09-06T15:38:48.332Z,95305.00
2022-09-06T15:41:21.395Z,95303.20
2022-09-06T15:43:50.626Z,95300.00
2022-09-06T15:46:22.120Z,95298.60
2022-09-06T15:48:53.599Z,95293.60
2022-09-06T15:51:21.589Z,95292.00
2022-09-06T15:53:48.388Z,95288.80
2022-09-06T15:56:17.945Z,95286.80
2022-09-06T15:58:46.108Z,95284.20
2022-09-06T16:01:16.494Z,95283.20
2022-09-06T16:03:55.779Z,95281.80
2022-09-06T16:06:26.979Z,95286.20
2022-09-06T16:09:06.077Z,95286.20
2022-09-06T16:11:37.028Z,95283.60
2022-09-06T16:14:07.699Z,95288.40
2022-09-06T16:16:35.932Z,95287.40
2022-09-06T16:19:03.651Z,95289.80
2022-09-06T16:21:33.531Z,95289.40
2022-09-06T16:24:06.679Z,95292.00
2022-09-06T16:26:37.673Z,95294.00
2022-09-06T16:29:07.242Z,95290.80
2022-09-06T16:31:39.741Z,95293.60
2022-09-06T16:34:08.929Z,95289.20
2022-09-06T16:36:36.860Z,95288.20
2022-09-06T16:39:05.290Z,95293.20
2022-09-06T16:41:46.189Z,95293.00
2022-09-06T16:44:17.167Z,95289.40
2022-09-06T16:46:49.736Z,95292.40
2022-09-06T16:49:19.645Z,95293.60
2022-09-06T16:51:48.029Z,95293.80
2022-09-06T16:54:16.077Z,95295.00
2022-09-06T16:56:43.185Z,95298.20
2022-09-06T16:59:11.646Z,95293.80
2022-09-06T17:01:41.830Z,95288.80
2022-09-06T17:04:09.852Z,95288.40
2022-09-06T17:06:44.115Z,95288.40
2022-09-06T17:09:19.096Z,95290.00
2022-09-06T17:11:47.849Z,95293.60
2022-09-06T17:14:14.558Z,95289.40
2022-09-06T17:17:00.244Z,95286.00
2022-09-06T17:19:27.578Z,95289.20
2022-09-06T17:21:54.293Z,95283.60
2022-09-06T17:24:21.097Z,95276.20
2022-09-06T17:26:47.882Z,95276.80
2022-09-06T17:29:14.619Z,95276.60
2022-09-06T17:31:41.380Z,95275.20
2022-09-06T17:34:08.135Z,95271.00
2022-09-06T17:36:36.434Z,95270.40
2022-09-06T17:39:14.260Z,95271.80
2022-09-06T17:41:46.063Z,95272.00
2022-09-06T17:44:16.667Z,95265.80
2022-09-06T17:47:02.646Z,95274.00
2022-09-06T17:49:30.634Z,95288.60
2022-09-06T17:51:58.407Z,95293.20
2022-09-06T17:54:26.108Z,95298.40
2022-09-06T17:56:53.175Z,95298.40
2022-09-06T17:59:20.020Z,95305.20
2022-09-06T18:01:46.969Z,95304.00
2022-09-06T18:04:14.926Z,95308.40
2022-09-06T18:06:43.568Z,95311.20
2022-09-06T18:09:15.411Z,95318.40
2022-09-06T18:11:45.670Z,95323.40
2022-09-06T18:14:18.673Z,95332.00
2022-09-06T18:16:47.961Z,95337.60
2022-09-06T18:19:16.299Z,95345.60
2022-09-06T18:21:43.208Z,95340.80
2022-09-06T18:24:10.589Z,95337.20
2022-09-06T18:26:37.493Z,95340.20
2022-09-06T18:29:08.042Z,95344.20
2022-09-06T18:31:34.832Z,95344.20
2022-09-06T18:34:01.711Z,95347.60
2022-09-06T18:36:31.914Z,95346.80
2022-09-06T18:39:04.978Z,95346.00
2022-09-06T18:41:52.390Z,95341.00
2022-09-06T18:44:19.584Z,95340.60
2022-09-06T18:46:47.056Z,95341.20
2022-09-06T18:49:14.959Z,95332.00
2022-09-06T18:51:42.335Z,95331.20
2022-09-06T18:54:11.044Z,95332.60
2022-09-06T18:56:38.497Z,95335.20
2022-09-06T18:59:05.689Z,95330.60
2022-09-06T19:01:34.773Z,95331.20
2022-09-06T19:04:02.488Z,95332.20
2022-09-06T19:06:31.572Z,95331.80
2022-09-06T19:09:05.139Z,95333.40
2022-09-06T19:11:32.408Z,95325.00
2022-09-06T19:13:59.137Z,95323.00
2022-09-06T19:16:28.210Z,95325.00
2022-09-06T19:18:56.799Z,95325.80
2022-09-06T19:21:25.566Z,95327.60
2022-09-06T19:24:02.529Z,95326.80
2022-09-06T19:26:33.167Z,95326.20
2022-09-06T19:29:07.691Z,95326.40
2022-09-06T19:31:37.767Z,95323.00
2022-09-06T19:34:05.547Z,95319.40
2022-09-06T19:36:32.627Z,95317.40
2022-09-06T19:39:04.506Z,95317.00
2022-09-06T19:41:37.868Z,95318.40
2022-09-06T19:44:08.409Z,95312.00
2022-09-06T19:46:35.892Z,95308.60
2022-09-06T19:49:03.342Z,95311.00
2022-09-06T19:51:30.468Z,95308.40
2022-09-06T19:53:58.067Z,95312.60
2022-09-06T19:56:34.414Z,95311.20
2022-09-06T19:59:08.784Z,95314.40
2022-09-06T20:01:38.069Z,95308.40
2022-09-06T20:04:08.645Z,95307.00
2022-09-06T20:06:35.833Z,95307.60
2022-09-06T20:09:05.550Z,95301.80
2022-09-06T20:11:34.378Z,95295.40
2022-09-06T20:14:01.839Z,95288.20
2022-09-06T20:16:28.856Z,95289.60
2022-09-06T20:18:56.334Z,95286.40
2022-09-06T20:21:23.171Z,95283.60
2022-09-06T20:23:52.423Z,95282.20
2022-09-06T20:26:22.830Z,95274.80
2022-09-06T20:29:02.382Z,95272.60
2022-09-06T20:31:31.474Z,95270.80
2022-09-06T20:34:04.370Z,95268.60
2022-09-06T20:36:31.508Z,95273.00
2022-09-06T20:38:58.285Z,95275.40
2022-09-06T20:41:26.838Z,95273.00
2022-09-06T20:43:56.802Z,95274.40
2022-09-06T20:46:30.168Z,95266.60
2022-09-06T20:49:03.670Z,95267.00
2022-09-06T20:51:31.888Z,95266.60
2022-09-06T20:54:00.764Z,95263.40
2022-09-06T20:56:31.830Z,95265.60
2022-09-06T20:59:01.129Z,95265.20
2022-09-06T21:01:35.058Z,95265.60
2022-09-06T21:04:05.308Z,95265.80
2022-09-06T21:06:35.569Z,95255.80
2022-09-06T21:09:05.538Z,95252.60
2022-09-06T21:11:33.170Z,95247.80
2022-09-06T21:14:00.166Z,95247.20
2022-09-06T21:16:29.296Z,95241.40
2022-09-06T21:18:59.673Z,95240.00
2022-09-06T21:21:29.784Z,95236.60
2022-09-06T21:23:57.263Z,95236.60
2022-09-06T21:26:24.013Z,95237.60
2022-09-06T21:28:50.943Z,95240.00
2022-09-06T21:31:24.326Z,95239.60
2022-09-06T21:33:55.018Z,95240.20
2022-09-06T21:36:33.978Z,95241.80
2022-09-06T21:39:04.211Z,95249.40
2022-09-06T21:41:32.051Z,95249.40
2022-09-06T21:44:01.210Z,95250.00
2022-09-06T21:46:35.496Z,95254.00
2022-09-06T21:49:09.037Z,95262.80
2022-09-06T21:51:36.476Z,95262.40
2022-09-06T21:54:05.391Z,95262.80
2022-09-06T21:56:37.068Z,95265.40
2022-09-06T21:59:05.363Z,95268.00
2022-09-06T22:01:37.084Z,95273.00
2022-09-06T22:04:04.617Z,95269.00
2022-09-06T22:06:33.735Z,95262.40
2022-09-06T22:09:07.663Z,95259.20
2022-09-06T22:11:34.890Z,95261.40
2022-09-06T22:14:05.249Z,95256.80
2022-09-06T22:16:35.334Z,95257.20
2022-09-06T22:19:04.888Z,95254.20
2022-09-06T22:21:32.085Z,95255.60
2022-09-06T22:24:03.684Z,95250.80
2022-09-06T22:26:33.807Z,95249.20
2022-09-06T22:29:04.855Z,95245.20
2022-09-06T22:31:33.598Z,95249.60
2022-09-06T22:34:01.234Z,95252.20
2022-09-06T22:36:28.794Z,95245.00
2022-09-06T22:38:59.048Z,95244.00
2022-09-06T22:41:29.932Z,95242.80
2022-09-06T22:43:56.815Z,95247.60
2022-09-06T22:46:24.500Z,95251.80
2022-09-06T22:48:52.150Z,95249.80
2022-09-06T22:51:18.843Z,95251.60
2022-09-06T22:53:45.575Z,95248.60
2022-09-06T22:56:12.382Z,95245.80
2022-09-06T22:58:39.163Z,95240.60
2022-09-06T23:01:13.208Z,95236.80
2022-09-06T23:03:41.826Z,95232.60
2022-09-06T23:06:09.742Z,95236.00
2022-09-06T23:08:38.804Z,95234.00
2022-09-06T23:11:09.992Z,95231.80
2022-09-06T23:13:37.067Z,95229.60
2022-09-06T23:16:09.505Z,95228.20
2022-09-06T23:18:36.463Z,95224.20
2022-09-06T23:21:12.920Z,95220.60
2022-09-06T23:23:41.309Z,95222.00
2022-09-06T23:26:12.771Z,95216.80
2022-09-06T23:28:39.926Z,95214.40
2022-09-06T23:31:14.087Z,95213.80
2022-09-06T23:33:41.785Z,95217.40
2022-09-06T23:36:12.039Z,95217.00
2022-09-06T23:38:41.092Z,95213.00
2022-09-06T23:41:11.039Z,95212.40
2022-09-06T23:43:39.459Z,95210.20
2022-09-06T23:46:07.352Z,95211.00
2022-09-06T23:48:35.333Z,95206.00
2022-09-06T23:51:02.546Z,95205.40
2022-09-06T23:53:29.449Z,95202.20
2022-09-06T23:55:56.289Z,95206.60
2022-09-06T23:58:23.785Z,95204.40
